createdAt,value
2017-05-26T00:01:27.997Z,7.97
2017-05-26T00:04:00.915Z,10.72
2017-05-26T00:06:28.285Z,7.22
2017-05-26T00:08:59.132Z,7.50
2017-05-26T00:11:25.984Z,8.48
2017-05-26T00:13:53.585Z,9.23
2017-05-26T00:16:22.114Z,9.30
2017-05-26T00:18:51.014Z,10.18
2017-05-26T00:21:18.608Z,9.62
2017-05-26T00:23:52.323Z,9.12
2017-05-26T00:26:23.928Z,8.98
2017-05-26T00:28:51.717Z,10.03
2017-05-26T00:31:18.835Z,9.38
2017-05-26T00:33:46.814Z,9.65
2017-05-26T00:36:15.172Z,10.20
2017-05-26T00:38:42.344Z,10.07
2017-05-26T00:43:43.605Z,8.45
2017-05-26T00:46:10.829Z,9.35
2017-05-26T00:51:10.980Z,10.43
2017-05-26T00:53:40.302Z,10.35
2017-05-26T00:56:09.536Z,9.77
2017-05-26T00:58:36.664Z,12.45
2017-05-26T01:01:03.927Z,11.55
2017-05-26T01:03:31.427Z,9.30
2017-05-26T01:05:59.271Z,11.72
2017-05-26T01:08:26.296Z,10.90
2017-05-26T01:10:53.821Z,13.70
2017-05-26T01:13:22.152Z,11.98
2017-05-26T01:18:26.646Z,12.88
2017-05-26T01:20:54.779Z,10.52
2017-05-26T01:23:28.122Z,10.35
2017-05-26T01:25:56.262Z,13.55
2017-05-26T01:28:23.310Z,10.05
2017-05-26T01:30:52.084Z,13.77
2017-05-26T01:33:20.145Z,12.20
2017-05-26T01:35:48.048Z,10.53
2017-05-26T01:38:16.890Z,10.98
2017-05-26T01:40:44.916Z,10.47
2017-05-26T01:43:12.399Z,12.72
2017-05-26T01:45:39.611Z,12.18
2017-05-26T01:48:07.201Z,12.07
2017-05-26T01:50:37.238Z,15.20
2017-05-26T01:53:04.654Z,13.20
2017-05-26T01:55:32.054Z,13.37
2017-05-26T01:57:59.218Z,9.75
2017-05-26T02:00:27.875Z,11.05
2017-05-26T02:02:55.812Z,11.10
2017-05-26T02:05:25.209Z,11.63
2017-05-26T02:07:52.012Z,11.43
2017-05-26T02:10:21.076Z,11.17
2017-05-26T02:12:48.892Z,18.32
2017-05-26T02:15:15.712Z,9.03
2017-05-26T02:17:43.711Z,14.87
2017-05-26T02:20:12.706Z,14.15
2017-05-26T02:22:40.481Z,8.82
2017-05-26T02:25:08.039Z,12.68
2017-05-26T02:27:34.837Z,11.05
2017-05-26T02:30:02.620Z,11.33
2017-05-26T02:32:30.368Z,8.57
2017-05-26T02:34:59.913Z,11.53
2017-05-26T02:37:27.339Z,10.17
2017-05-26T02:39:59.270Z,16.20
2017-05-26T02:42:27.162Z,11.98
2017-05-26T02:44:53.978Z,11.75
2017-05-26T02:47:21.050Z,9.57
2017-05-26T02:52:21.807Z,10.50
2017-05-26T02:54:49.017Z,11.63
2017-05-26T02:57:16.686Z,9.53
2017-05-26T02:59:45.643Z,11.40
2017-05-26T03:02:12.497Z,12.03
2017-05-26T03:04:39.331Z,10.70
2017-05-26T03:07:08.419Z,9.23
2017-05-26T03:09:37.581Z,10.12
2017-05-26T03:12:04.373Z,9.63
2017-05-26T03:14:36.681Z,10.33
2017-05-26T03:17:04.359Z,14.15
2017-05-26T03:19:32.781Z,10.08
2017-05-26T03:22:00.037Z,10.47
2017-05-26T03:24:26.874Z,9.17
2017-05-26T03:26:53.721Z,9.70
2017-05-26T03:29:22.435Z,9.95
2017-05-26T03:31:50.113Z,11.72
2017-05-26T03:34:17.221Z,13.77
2017-05-26T03:36:45.752Z,10.87
2017-05-26T03:39:12.625Z,10.70
2017-05-26T03:41:40.339Z,14.53
2017-05-26T03:44:09.628Z,12.92
2017-05-26T03:46:37.407Z,11.95
2017-05-26T03:49:04.289Z,9.68
2017-05-26T03:51:31.553Z,11.12
2017-05-26T03:53:58.507Z,13.00
2017-05-26T03:56:31.915Z,17.88
2017-05-26T03:59:00.628Z,12.05
2017-05-26T04:01:30.233Z,11.87
2017-05-26T04:03:57.808Z,12.17
2017-05-26T04:06:25.001Z,13.15
2017-05-26T04:08:52.675Z,10.02
2017-05-26T04:11:20.738Z,10.08
2017-05-26T04:13:49.437Z,10.33
2017-05-26T04:16:18.930Z,10.43
2017-05-26T04:18:47.102Z,10.92
2017-05-26T04:21:16.196Z,10.95
2017-05-26T04:23:43.330Z,9.38
2017-05-26T04:26:11.645Z,11.07
2017-05-26T04:28:40.205Z,10.07
2017-05-26T04:31:07.796Z,11.13
2017-05-26T04:33:36.106Z,10.92
2017-05-26T04:36:04.351Z,9.17
2017-05-26T04:38:31.433Z,7.70
2017-05-26T04:40:58.263Z,7.02
2017-05-26T04:43:26.859Z,10.18
2017-05-26T04:45:54.061Z,5.94
2017-05-26T04:48:21.844Z,6.73
2017-05-26T04:50:49.414Z,5.73
2017-05-26T04:53:16.565Z,5.98
2017-05-26T04:55:44.855Z,6.75
2017-05-26T04:58:13.470Z,7.92
2017-05-26T05:00:40.336Z,6.47
2017-05-26T05:03:08.623Z,6.90
2017-05-26T05:05:37.488Z,8.03
2017-05-26T05:08:04.693Z,7.65
2017-05-26T05:10:31.686Z,9.72
2017-05-26T05:12:59.083Z,8.95
2017-05-26T05:15:25.896Z,7.82
2017-05-26T05:17:52.759Z,9.25
2017-05-26T05:20:20.888Z,9.73
2017-05-26T05:22:48.621Z,11.87
2017-05-26T05:25:15.469Z,9.25
2017-05-26T05:27:42.962Z,10.25
2017-05-26T05:30:09.790Z,9.83
2017-05-26T05:32:37.217Z,11.90
2017-05-26T05:35:04.409Z,10.90
2017-05-26T05:37:32.632Z,12.50
2017-05-26T05:40:00.024Z,12.48
2017-05-26T05:42:28.566Z,12.55
2017-05-26T05:44:55.413Z,16.98
2017-05-26T05:47:22.592Z,13.57
2017-05-26T05:49:50.498Z,12.67
2017-05-26T05:52:20.243Z,13.48
2017-05-26T05:57:21.073Z,14.35
2017-05-26T06:02:21.565Z,13.10
2017-05-26T06:04:49.643Z,12.83
2017-05-26T06:07:18.420Z,14.32
2017-05-26T06:09:48.964Z,17.20
2017-05-26T06:12:16.077Z,13.98
2017-05-26T06:14:43.817Z,11.36
2017-05-26T06:17:11.009Z,13.72
2017-05-26T06:19:38.534Z,13.64
2017-05-26T06:22:06.678Z,15.34
2017-05-26T06:24:33.500Z,13.30
2017-05-26T06:27:01.871Z,12.78
2017-05-26T06:29:30.798Z,14.90
2017-05-26T06:31:59.441Z,14.52
2017-05-26T06:34:26.690Z,12.30
2017-05-26T06:37:00.705Z,12.20
2017-05-26T06:39:27.817Z,11.74
2017-05-26T06:41:55.351Z,11.56
2017-05-26T06:44:22.394Z,11.12
2017-05-26T06:46:51.196Z,10.48
2017-05-26T06:49:19.034Z,10.58
2017-05-26T06:51:46.621Z,10.10
2017-05-26T06:54:16.056Z,11.78
2017-05-26T06:56:43.845Z,9.84
2017-05-26T06:59:13.725Z,10.28
2017-05-26T07:01:40.836Z,10.00
2017-05-26T07:04:09.489Z,8.94
2017-05-26T07:06:36.637Z,8.74
2017-05-26T07:09:04.546Z,9.72
2017-05-26T07:11:31.761Z,11.18
2017-05-26T07:14:00.083Z,9.94
2017-05-26T07:16:27.458Z,11.02
2017-05-26T07:18:55.936Z,11.56
2017-05-26T07:21:22.723Z,11.60
2017-05-26T07:23:50.095Z,13.04
2017-05-26T07:26:17.549Z,10.12
2017-05-26T07:28:44.354Z,12.52
2017-05-26T07:33:43.193Z,9.96
2017-05-26T07:36:10.732Z,11.00
2017-05-26T07:38:37.825Z,11.66
2017-05-26T07:41:04.623Z,10.26
2017-05-26T07:43:31.433Z,11.46
2017-05-26T07:45:58.543Z,11.72
2017-05-26T07:48:25.352Z,10.94
2017-05-26T07:50:52.539Z,10.50
2017-05-26T07:53:20.499Z,13.16
2017-05-26T07:55:48.291Z,15.80
2017-05-26T07:58:15.509Z,12.56
2017-05-26T08:00:42.954Z,12.50
2017-05-26T08:03:09.836Z,13.64
2017-05-26T08:05:36.902Z,14.62
2017-05-26T08:08:03.981Z,13.48
2017-05-26T08:10:31.177Z,13.56
2017-05-26T08:12:58.006Z,13.58
2017-05-26T08:15:25.346Z,14.06
2017-05-26T08:17:52.170Z,14.58
2017-05-26T08:20:19.010Z,14.36
2017-05-26T08:22:46.441Z,13.56
2017-05-26T08:25:13.248Z,11.90
2017-05-26T08:27:40.418Z,12.10
2017-05-26T08:30:08.249Z,11.20
2017-05-26T08:32:35.049Z,11.34
2017-05-26T08:35:01.863Z,10.92
2017-05-26T08:37:28.973Z,10.36
2017-05-26T08:39:56.045Z,10.24
2017-05-26T08:42:23.715Z,9.36
2017-05-26T08:44:50.777Z,9.32
2017-05-26T08:47:17.583Z,10.14
2017-05-26T08:49:44.716Z,10.60
2017-05-26T08:52:12.067Z,11.06
2017-05-26T08:54:38.935Z,10.82
2017-05-26T08:57:05.724Z,10.62
2017-05-26T08:59:32.823Z,9.56
2017-05-26T09:01:59.609Z,13.58
2017-05-26T09:04:26.385Z,11.90
2017-05-26T09:06:53.820Z,10.84
2017-05-26T09:09:20.926Z,10.00
2017-05-26T09:11:47.707Z,10.68
2017-05-26T09:14:14.769Z,10.10
2017-05-26T09:16:41.806Z,10.18
2017-05-26T09:19:08.600Z,10.10
2017-05-26T09:21:36.101Z,11.14
2017-05-26T09:24:03.133Z,10.62
2017-05-26T09:26:29.939Z,11.34
2017-05-26T09:28:57.017Z,11.34
2017-05-26T09:31:23.849Z,13.90
2017-05-26T09:33:50.664Z,12.06
2017-05-26T09:36:17.782Z,11.76
2017-05-26T09:38:46.420Z,10.68
2017-05-26T09:41:13.581Z,12.16
2017-05-26T09:43:40.653Z,11.58
2017-05-26T09:46:07.694Z,11.26
2017-05-26T09:48:34.503Z,15.48
2017-05-26T09:51:01.583Z,12.44
2017-05-26T09:53:28.433Z,13.36
2017-05-26T09:55:58.421Z,12.20
2017-05-26T09:58:26.435Z,13.02
2017-05-26T10:00:55.237Z,11.42
2017-05-26T10:03:23.864Z,12.06
2017-05-26T10:05:51.234Z,10.84
2017-05-26T10:08:20.283Z,11.38
2017-05-26T10:10:49.664Z,10.46
2017-05-26T10:13:20.398Z,7.32
2017-05-26T10:15:48.980Z,5.46
2017-05-26T10:18:16.654Z,8.56
2017-05-26T10:20:44.627Z,8.66
2017-05-26T10:23:12.600Z,7.34
2017-05-26T10:25:40.810Z,6.70
2017-05-26T10:28:08.952Z,5.84
2017-05-26T10:30:38.444Z,6.94
2017-05-26T10:33:14.057Z,6.22
2017-05-26T10:35:40.948Z,5.90
2017-05-26T10:38:08.643Z,7.32
2017-05-26T10:40:37.961Z,5.36
2017-05-26T10:43:07.143Z,5.40
2017-05-26T10:45:35.917Z,5.92
2017-05-26T10:48:04.484Z,7.44
2017-05-26T10:50:33.657Z,6.42
2017-05-26T10:53:01.651Z,5.18
2017-05-26T10:55:30.687Z,5.78
2017-05-26T10:58:00.204Z,6.56
2017-05-26T11:00:29.845Z,8.26
2017-05-26T11:02:58.624Z,5.58
2017-05-26T11:05:27.839Z,6.66
2017-05-26T11:07:56.958Z,4.92
2017-05-26T11:10:25.068Z,5.96
2017-05-26T11:12:52.485Z,5.28
2017-05-26T11:15:24.090Z,6.20
2017-05-26T11:17:52.901Z,6.04
2017-05-26T11:22:51.804Z,3.86
2017-05-26T11:25:21.629Z,5.98
2017-05-26T11:27:51.558Z,4.20
2017-05-26T11:30:22.712Z,4.18
2017-05-26T11:32:53.455Z,5.78
2017-05-26T11:35:21.621Z,5.06
2017-05-26T11:37:48.517Z,6.46
2017-05-26T11:40:17.821Z,5.64
2017-05-26T11:42:49.645Z,4.96
2017-05-26T11:45:18.639Z,5.14
2017-05-26T11:47:48.685Z,6.04
2017-05-26T11:50:17.245Z,5.78
2017-05-26T11:52:44.127Z,6.12
2017-05-26T11:55:12.139Z,4.76
2017-05-26T11:57:39.677Z,4.80
2017-05-26T12:00:07.745Z,4.30
2017-05-26T12:02:35.713Z,4.02
2017-05-26T12:07:40.021Z,3.96
2017-05-26T12:10:06.856Z,3.64
2017-05-26T12:12:34.095Z,4.62
2017-05-26T12:15:02.916Z,4.32
2017-05-26T12:17:30.024Z,3.64
2017-05-26T12:19:57.070Z,3.70
2017-05-26T12:22:24.389Z,3.10
2017-05-26T12:24:51.513Z,3.34
2017-05-26T12:27:19.433Z,4.04
2017-05-26T12:29:46.822Z,3.26
2017-05-26T12:32:13.979Z,4.94
2017-05-26T12:34:41.119Z,4.92
2017-05-26T12:37:08.217Z,4.16
2017-05-26T12:39:35.373Z,3.80
2017-05-26T12:42:02.970Z,3.40
2017-05-26T12:44:30.338Z,3.88
2017-05-26T12:46:57.217Z,2.60
2017-05-26T12:49:24.029Z,2.60
2017-05-26T12:51:51.420Z,3.76
2017-05-26T12:54:18.523Z,3.46
2017-05-26T12:56:45.605Z,3.30
2017-05-26T12:59:12.765Z,3.48
2017-05-26T13:01:40.009Z,3.90
2017-05-26T13:04:07.965Z,3.40
2017-05-26T13:06:35.739Z,3.14
2017-05-26T13:09:02.854Z,5.90
2017-05-26T13:11:30.172Z,4.14
2017-05-26T13:13:57.297Z,3.24
2017-05-26T13:16:24.495Z,2.82
2017-05-26T13:18:51.588Z,3.62
2017-05-26T13:21:18.759Z,4.10
2017-05-26T13:23:45.859Z,3.98
2017-05-26T13:26:13.064Z,3.54
2017-05-26T13:28:39.936Z,3.90
2017-05-26T13:33:38.404Z,5.64
2017-05-26T13:38:37.258Z,3.84
2017-05-26T13:41:04.914Z,3.64
2017-05-26T13:43:32.882Z,3.28
2017-05-26T13:46:00.277Z,3.54
2017-05-26T13:48:27.339Z,3.90
2017-05-26T13:50:54.112Z,3.90
2017-05-26T13:53:21.472Z,3.42
2017-05-26T13:55:48.833Z,3.52
2017-05-26T13:58:15.994Z,3.76
2017-05-26T14:00:43.497Z,3.08
2017-05-26T14:03:10.829Z,3.70
2017-05-26T14:08:09.373Z,3.18
2017-05-26T14:10:39.888Z,3.10
2017-05-26T14:13:07.840Z,2.58
2017-05-26T14:18:06.664Z,2.62
2017-05-26T14:23:07.123Z,4.50
2017-05-26T14:25:34.686Z,3.18
2017-05-26T14:28:02.154Z,3.78
2017-05-26T14:30:29.542Z,2.90
2017-05-26T14:32:56.605Z,2.90
2017-05-26T14:35:23.789Z,3.74
2017-05-26T14:37:51.616Z,2.50
2017-05-26T14:40:20.262Z,3.38
2017-05-26T14:42:47.943Z,3.92
2017-05-26T14:45:15.549Z,4.66
2017-05-26T14:47:42.671Z,5.14
2017-05-26T14:50:09.810Z,3.54
2017-05-26T14:52:37.168Z,2.60
2017-05-26T14:55:04.329Z,2.90
2017-05-26T14:57:31.414Z,3.02
2017-05-26T14:59:58.756Z,2.24
2017-05-26T15:02:25.791Z,4.20
2017-05-26T15:04:52.974Z,2.52
2017-05-26T15:07:20.835Z,2.40
2017-05-26T15:09:49.354Z,3.28
2017-05-26T15:12:16.899Z,4.98
2017-05-26T15:14:44.289Z,3.58
2017-05-26T15:17:11.408Z,2.06
2017-05-26T15:19:41.816Z,2.30
2017-05-26T15:22:09.259Z,2.58
2017-05-26T15:24:36.061Z,2.48
2017-05-26T15:27:02.877Z,2.34
2017-05-26T15:29:31.641Z,2.66
2017-05-26T15:31:59.180Z,6.52
2017-05-26T15:34:26.887Z,2.44
2017-05-26T15:36:54.331Z,3.12
2017-05-26T15:39:22.983Z,4.38
2017-05-26T15:41:50.152Z,7.32
2017-05-26T15:44:17.584Z,2.14
2017-05-26T15:46:44.705Z,2.66
2017-05-26T15:49:11.792Z,2.82
2017-05-26T15:51:39.218Z,2.00
2017-05-26T15:54:06.253Z,2.60
2017-05-26T15:56:33.967Z,2.62
2017-05-26T15:59:01.109Z,2.42
2017-05-26T16:01:28.652Z,2.42
2017-05-26T16:03:55.811Z,2.40
2017-05-26T16:06:23.346Z,2.66
2017-05-26T16:08:50.397Z,2.52
2017-05-26T16:11:17.631Z,2.88
2017-05-26T16:13:44.971Z,2.30
2017-05-26T16:16:13.457Z,2.92
2017-05-26T16:18:40.625Z,3.36
2017-05-26T16:21:08.497Z,3.12
2017-05-26T16:23:35.716Z,4.96
2017-05-26T16:26:02.839Z,2.86
2017-05-26T16:28:30.197Z,3.90
2017-05-26T16:30:58.815Z,3.30
2017-05-26T16:33:26.509Z,3.24
2017-05-26T16:35:53.915Z,3.14
2017-05-26T16:38:21.561Z,2.58
2017-05-26T16:40:48.605Z,4.70
2017-05-26T16:43:15.998Z,2.82
2017-05-26T16:45:43.207Z,2.72
2017-05-26T16:48:10.728Z,2.78
2017-05-26T16:50:38.565Z,2.70
2017-05-26T16:53:05.392Z,2.88
2017-05-26T16:55:32.900Z,4.40
2017-05-26T16:57:59.968Z,3.02
2017-05-26T17:00:27.019Z,2.18
2017-05-26T17:02:54.155Z,3.68
2017-05-26T17:05:21.249Z,2.80
2017-05-26T17:07:52.490Z,2.72
2017-05-26T17:10:19.680Z,2.16
2017-05-26T17:12:46.793Z,5.42
2017-05-26T17:15:13.635Z,2.48
2017-05-26T17:17:40.836Z,2.78
2017-05-26T17:20:08.313Z,2.58
2017-05-26T17:22:35.836Z,5.50
2017-05-26T17:25:03.010Z,3.80
2017-05-26T17:27:30.103Z,2.60
2017-05-26T17:29:57.754Z,2.98
2017-05-26T17:32:26.758Z,3.08
2017-05-26T17:34:54.632Z,3.00
2017-05-26T17:37:21.499Z,2.32
2017-05-26T17:39:50.099Z,2.16
2017-05-26T17:42:17.203Z,3.18
2017-05-26T17:44:44.395Z,3.52
2017-05-26T17:47:13.053Z,2.58
2017-05-26T17:49:40.498Z,3.64
2017-05-26T17:52:08.092Z,2.76
2017-05-26T17:54:35.129Z,2.84
2017-05-26T17:57:03.063Z,3.74
2017-05-26T17:59:30.172Z,3.82
2017-05-26T18:01:57.360Z,4.54
2017-05-26T18:04:24.531Z,2.72
2017-05-26T18:06:51.342Z,5.34
2017-05-26T18:09:18.462Z,3.94
2017-05-26T18:11:45.535Z,2.88
2017-05-26T18:14:12.810Z,3.80
2017-05-26T18:16:39.698Z,3.36
2017-05-26T18:19:06.876Z,3.88
2017-05-26T18:21:34.264Z,2.86
2017-05-26T18:24:01.396Z,3.74
2017-05-26T18:26:31.742Z,3.36
2017-05-26T18:29:01.223Z,3.64
2017-05-26T18:31:29.226Z,3.38
2017-05-26T18:33:56.592Z,3.16
2017-05-26T18:36:25.247Z,3.46
2017-05-26T18:38:53.874Z,3.84
2017-05-26T18:41:22.999Z,3.78
2017-05-26T18:43:51.380Z,3.76
2017-05-26T18:46:19.133Z,5.08
2017-05-26T18:48:47.021Z,3.64
2017-05-26T18:51:15.992Z,4.16
2017-05-26T18:53:43.057Z,4.28
2017-05-26T18:56:12.483Z,3.24
2017-05-26T18:58:39.765Z,5.08
2017-05-26T19:01:08.277Z,4.24
2017-05-26T19:03:35.672Z,3.60
2017-05-26T19:06:08.096Z,6.40
2017-05-26T19:08:36.029Z,4.00
2017-05-26T19:11:03.155Z,4.68
2017-05-26T19:13:31.621Z,3.72
2017-05-26T19:16:01.628Z,7.04
2017-05-26T19:18:30.204Z,4.44
2017-05-26T19:20:58.644Z,5.78
2017-05-26T19:23:27.420Z,3.40
2017-05-26T19:25:54.929Z,4.70
2017-05-26T19:28:21.816Z,7.26
2017-05-26T19:30:48.944Z,5.02
2017-05-26T19:33:16.914Z,5.42
2017-05-26T19:35:43.894Z,4.92
2017-05-26T19:38:11.917Z,5.46
2017-05-26T19:40:40.256Z,6.46
2017-05-26T19:43:08.842Z,5.24
2017-05-26T19:45:37.416Z,6.58
2017-05-26T19:48:04.632Z,7.74
2017-05-26T19:50:31.433Z,6.36
2017-05-26T19:52:58.547Z,7.06
2017-05-26T19:55:26.134Z,5.30
2017-05-26T19:59:13.343Z,6.88
2017-05-26T20:01:40.822Z,7.58
2017-05-26T20:04:09.307Z,6.26
2017-05-26T20:06:37.831Z,6.26
2017-05-26T20:09:06.162Z,4.82
2017-05-26T20:11:33.262Z,6.20
2017-05-26T20:14:00.356Z,5.50
2017-05-26T20:16:30.153Z,7.98
2017-05-26T20:19:00.064Z,7.44
2017-05-26T20:21:28.713Z,9.36
2017-05-26T20:23:56.777Z,9.56
2017-05-26T20:26:23.786Z,10.64
2017-05-26T20:28:51.246Z,7.90
2017-05-26T20:31:19.736Z,7.88
2017-05-26T20:33:47.367Z,10.02
2017-05-26T20:36:15.245Z,9.96
2017-05-26T20:38:43.683Z,9.53
2017-05-26T20:41:12.808Z,8.18
2017-05-26T20:43:40.235Z,9.20
2017-05-26T20:46:07.946Z,7.32
2017-05-26T20:48:34.729Z,7.05
2017-05-26T20:51:01.854Z,7.70
2017-05-26T20:53:29.533Z,9.98
2017-05-26T20:55:56.356Z,9.16
2017-05-26T20:58:23.887Z,8.46
2017-05-26T21:00:53.021Z,10.03
2017-05-26T21:03:21.703Z,8.28
2017-05-26T21:05:49.833Z,7.55
2017-05-26T21:08:17.551Z,7.70
2017-05-26T21:10:44.763Z,9.45
2017-05-26T21:13:13.214Z,9.32
2017-05-26T21:15:40.073Z,9.73
2017-05-26T21:18:09.213Z,9.04
2017-05-26T21:20:37.819Z,11.40
2017-05-26T21:23:06.122Z,9.77
2017-05-26T21:25:33.646Z,7.95
2017-05-26T21:28:01.629Z,8.67
2017-05-26T21:30:29.282Z,9.95
2017-05-26T21:32:56.156Z,10.12
2017-05-26T21:35:23.972Z,7.83
2017-05-26T21:37:52.089Z,14.13
2017-05-26T21:40:19.054Z,11.92
2017-05-26T21:42:47.952Z,12.95
2017-05-26T21:45:15.073Z,11.50
2017-05-26T21:47:43.599Z,9.60
2017-05-26T21:50:11.360Z,9.40
2017-05-26T21:52:38.961Z,25.42
2017-05-26T21:55:07.237Z,8.58
2017-05-26T21:57:34.312Z,10.82
2017-05-26T22:00:02.568Z,7.83
2017-05-26T22:02:29.690Z,9.47
2017-05-26T22:04:57.421Z,9.35
2017-05-26T22:07:26.064Z,9.78
2017-05-26T22:09:55.005Z,11.73
2017-05-26T22:12:23.116Z,9.53
2017-05-26T22:14:49.934Z,9.37
2017-05-26T22:17:17.487Z,11.03
2017-05-26T22:19:45.516Z,11.55
2017-05-26T22:22:13.363Z,13.08
2017-05-26T22:24:40.180Z,11.27
2017-05-26T22:27:07.543Z,12.35
2017-05-26T22:29:34.836Z,11.27
2017-05-26T22:32:03.128Z,11.20
2017-05-26T22:34:30.024Z,18.08
2017-05-26T22:36:57.907Z,11.73
2017-05-26T22:39:24.751Z,10.33
2017-05-26T22:41:52.711Z,12.08
2017-05-26T22:44:20.729Z,11.30
2017-05-26T22:46:48.354Z,10.23
2017-05-26T22:49:16.209Z,9.87
2017-05-26T22:51:44.011Z,11.63
2017-05-26T22:54:10.857Z,9.92
2017-05-26T22:56:38.623Z,17.03
2017-05-26T22:59:06.192Z,12.77
2017-05-26T23:01:33.236Z,10.97
2017-05-26T23:04:00.047Z,16.83
2017-05-26T23:06:27.807Z,12.60
2017-05-26T23:08:55.040Z,11.85
2017-05-26T23:11:22.749Z,14.80
2017-05-26T23:14:00.621Z,15.95
2017-05-26T23:16:29.120Z,12.45
2017-05-26T23:18:57.536Z,12.98
2017-05-26T23:21:25.437Z,12.98
2017-05-26T23:23:53.720Z,11.72
2017-05-26T23:26:20.829Z,12.23
2017-05-26T23:28:50.154Z,11.13
2017-05-26T23:31:17.249Z,12.85
2017-05-26T23:33:45.275Z,12.57
2017-05-26T23:36:12.092Z,14.20
2017-05-26T23:38:38.867Z,11.27
2017-05-26T23:41:05.952Z,13.48
2017-05-26T23:43:32.736Z,10.47
2017-05-26T23:45:59.576Z,15.12
2017-05-26T23:48:26.669Z,14.40
2017-05-26T23:50:54.768Z,14.95
2017-05-26T23:53:21.555Z,13.78
2017-05-26T23:55:48.618Z,11.27
2017-05-26T23:58:15.408Z,17.42
